createdAt,value
2018-01-07T00:00:35.413Z,96.53
2018-01-07T00:01:45.484Z,96.34
2018-01-07T00:02:55.455Z,96.62
2018-01-07T00:04:05.426Z,96.81
2018-01-07T00:05:15.396Z,96.81
2018-01-07T00:06:25.368Z,97.56
2018-01-07T00:07:34.807Z,98.22
2018-01-07T00:08:44.519Z,98.41
2018-01-07T00:09:54.237Z,98.22
2018-01-07T00:11:03.950Z,98.5
2018-01-07T00:12:13.928Z,98.97
2018-01-07T00:13:23.634Z,99.44
2018-01-07T00:14:33.605Z,99.44
2018-01-07T00:15:43.589Z,99.73
2018-01-07T00:16:53.559Z,99.91
2018-01-07T00:18:03.529Z,99.54
2018-01-07T00:19:13.237Z,99.44
2018-01-07T00:20:23.257Z,99.63
2018-01-07T00:21:33.230Z,99.44
2018-01-07T00:22:43.249Z,99.35
2018-01-07T00:23:52.693Z,99.16
2018-01-07T00:25:02.663Z,99.82
2018-01-07T00:26:12.688Z,99.82
2018-01-07T00:27:22.653Z,98.88
2018-01-07T00:28:32.622Z,98.32
2018-01-07T00:29:42.593Z,98.03
2018-01-07T00:30:52.564Z,97.85
2018-01-07T00:32:02.534Z,97.66
2018-01-07T00:33:12.246Z,98.32
2018-01-07T00:34:22.215Z,98.22
2018-01-07T00:35:32.182Z,98.03
2018-01-07T00:36:41.722Z,98.5
2018-01-07T00:37:51.755Z,98.5
2018-01-07T00:39:01.729Z,98.5
2018-01-07T00:40:11.432Z,98.6
2018-01-07T00:41:21.401Z,98.6
2018-01-07T00:42:31.106Z,98.22
2018-01-07T00:43:41.083Z,98.41
2018-01-07T00:44:50.791Z,98.88
2018-01-07T00:46:00.763Z,98.22
2018-01-07T00:47:10.741Z,98.79
2018-01-07T00:48:20.717Z,98.88
2018-01-07T00:49:30.696Z,98.88
2018-01-07T00:50:40.670Z,99.63
2018-01-07T00:51:50.391Z,99.26
2018-01-07T00:53:00.099Z,98.69
2018-01-07T00:54:10.095Z,97.94
2018-01-07T00:55:19.808Z,98.32
2018-01-07T00:56:29.803Z,97.66
2018-01-07T00:57:39.787Z,97.47
2018-01-07T00:58:49.767Z,97.47
2018-01-07T00:59:59.741Z,97.28
2018-01-07T01:01:09.720Z,97.19
2018-01-07T01:02:19.693Z,96.53
2018-01-07T01:03:29.403Z,96.34
2018-01-07T01:04:39.375Z,96.53
2018-01-07T01:05:49.352Z,95.96
2018-01-07T01:06:59.065Z,95.59
2018-01-07T01:08:09.039Z,95.96
2018-01-07T01:09:19.012Z,95.68
2018-01-07T01:10:28.994Z,95.4
2018-01-07T01:11:39.020Z,95.3
2018-01-07T01:12:48.992Z,95.4
2018-01-07T01:13:58.703Z,95.77
2018-01-07T01:15:08.414Z,95.59
2018-01-07T01:16:18.390Z,95.11
2018-01-07T01:17:28.364Z,95.3
2018-01-07T01:18:38.339Z,95.4
2018-01-07T01:19:48.310Z,95.87
2018-01-07T01:20:58.280Z,95.4
2018-01-07T01:22:08.261Z,95.3
2018-01-07T01:23:18.284Z,95.87
2018-01-07T01:24:27.994Z,95.49
2018-01-07T01:25:37.974Z,95.49
2018-01-07T01:26:47.949Z,95.68
2018-01-07T01:27:57.922Z,96.25
2018-01-07T01:29:07.899Z,96.34
2018-01-07T01:30:17.606Z,95.77
2018-01-07T01:31:27.633Z,96.06
2018-01-07T01:32:37.351Z,96.44
2018-01-07T01:33:47.326Z,96.91
2018-01-07T01:34:57.040Z,96.91
2018-01-07T01:36:07.019Z,96.15
2018-01-07T01:37:16.731Z,96.06
2018-01-07T01:38:26.705Z,96.25
2018-01-07T01:39:36.678Z,95.77
2018-01-07T01:40:46.692Z,96.06
2018-01-07T01:41:56.678Z,95.87
2018-01-07T01:43:06.659Z,96.25
2018-01-07T01:44:16.629Z,95.96
2018-01-07T01:45:26.614Z,95.87
2018-01-07T01:46:36.375Z,95.96
2018-01-07T01:47:46.088Z,96.44
2018-01-07T01:48:56.065Z,96.72
2018-01-07T01:50:06.043Z,96.15
2018-01-07T01:51:16.014Z,96.34
2018-01-07T01:52:25.717Z,96.72
2018-01-07T01:53:35.688Z,97.19
2018-01-07T01:54:45.660Z,96.53
2018-01-07T01:55:55.635Z,96.91
2018-01-07T01:57:05.609Z,96.25
2018-01-07T01:58:15.586Z,96.34
2018-01-07T01:59:25.038Z,96.91
2018-01-07T02:00:35.008Z,97
2018-01-07T02:01:44.980Z,98.03
2018-01-07T02:02:54.957Z,98.41
2018-01-07T02:04:04.929Z,98.03
2018-01-07T02:05:14.908Z,98.41
2018-01-07T02:06:24.882Z,98.46
2018-01-07T02:07:34.590Z,97.33
2018-01-07T02:08:44.304Z,97.14
2018-01-07T02:09:54.275Z,97.33
2018-01-07T02:11:03.985Z,96.95
2018-01-07T02:12:13.698Z,97.24
2018-01-07T02:13:23.672Z,96.86
2018-01-07T02:14:33.644Z,97.52
2018-01-07T02:15:43.624Z,96.95
2018-01-07T02:16:53.596Z,97.05
2018-01-07T02:18:03.306Z,97.14
2018-01-07T02:19:13.290Z,97.05
2018-01-07T02:20:23.269Z,97.24
2018-01-07T02:21:32.976Z,97.33
2018-01-07T02:22:42.951Z,97.24
2018-01-07T02:23:52.659Z,97.89
2018-01-07T02:25:02.368Z,97.24
2018-01-07T02:26:12.339Z,96.86
2018-01-07T02:27:22.312Z,96.77
2018-01-07T02:28:32.294Z,96.95
2018-01-07T02:29:42.300Z,96.77
2018-01-07T02:30:52.272Z,96.58
2018-01-07T02:32:01.980Z,95.73
2018-01-07T02:33:12.013Z,95.64
2018-01-07T02:34:21.736Z,94.88
2018-01-07T02:35:31.455Z,95.26
2018-01-07T02:36:41.445Z,94.69
2018-01-07T02:37:51.420Z,94.98
2018-01-07T02:39:01.130Z,94.5
2018-01-07T02:40:10.847Z,93.94
2018-01-07T02:41:20.826Z,93.65
2018-01-07T02:42:30.539Z,93.47
2018-01-07T02:43:40.512Z,93.47
2018-01-07T02:44:50.491Z,94.22
2018-01-07T02:46:00.517Z,94.03
2018-01-07T02:47:10.235Z,94.31
2018-01-07T02:48:19.944Z,93.94
2018-01-07T02:49:29.929Z,94.31
2018-01-07T02:50:39.375Z,94.03
2018-01-07T02:51:49.345Z,94.41
2018-01-07T02:52:59.337Z,94.98
2018-01-07T02:54:09.332Z,95.07
2018-01-07T02:55:19.309Z,94.79
2018-01-07T02:56:29.286Z,94.98
2018-01-07T02:57:39.010Z,95.07
2018-01-07T02:58:48.735Z,95.54
2018-01-07T02:59:58.717Z,95.26
2018-01-07T03:01:08.441Z,95.45
2018-01-07T03:02:18.416Z,95.02
2018-01-07T03:03:28.395Z,95.68
2018-01-07T03:04:37.572Z,95.96
2018-01-07T03:05:47.551Z,95.49
2018-01-07T03:06:57.523Z,95.59
2018-01-07T03:08:07.541Z,95.87
2018-01-07T03:09:17.519Z,96.06
2018-01-07T03:10:27.530Z,96.15
2018-01-07T03:11:37.236Z,96.91
2018-01-07T03:12:47.207Z,96.15
2018-01-07T03:13:57.288Z,96.44
2018-01-07T03:15:07.260Z,96.44
2018-01-07T03:16:17.227Z,97
2018-01-07T03:17:27.206Z,97.56
2018-01-07T03:18:36.916Z,97.56
2018-01-07T03:19:46.674Z,97.94
2018-01-07T03:20:56.646Z,98.22
2018-01-07T03:22:06.623Z,98.41
2018-01-07T03:23:16.600Z,98.03
2018-01-07T03:24:26.584Z,97.56
2018-01-07T03:25:36.342Z,96.72
2018-01-07T03:26:46.323Z,97.24
2018-01-07T03:27:56.028Z,96.11
2018-01-07T03:29:05.738Z,96.3
2018-01-07T03:30:15.724Z,95.73
2018-01-07T03:31:25.814Z,94.88
2018-01-07T03:32:35.800Z,95.35
2018-01-07T03:33:45.773Z,95.26
2018-01-07T03:34:55.753Z,96.77
2018-01-07T03:36:05.199Z,97.33
2018-01-07T03:37:14.912Z,97.33
2018-01-07T03:38:24.893Z,97.42
2018-01-07T03:39:34.866Z,96.67
2018-01-07T03:40:44.574Z,96.39
2018-01-07T03:41:54.545Z,96.01
2018-01-07T03:43:04.256Z,96.01
2018-01-07T03:44:14.230Z,95.07
2018-01-07T03:45:24.203Z,94.88
2018-01-07T03:46:34.177Z,94.5
2018-01-07T03:47:44.146Z,94.31
2018-01-07T03:48:54.126Z,94.69
2018-01-07T03:50:04.110Z,94.69
2018-01-07T03:51:14.083Z,94.69
2018-01-07T03:52:24.056Z,94.41
2018-01-07T03:53:34.040Z,94.03
2018-01-07T03:54:44.010Z,93.84
2018-01-07T03:55:53.992Z,93.56
2018-01-07T03:57:03.969Z,93.18
2018-01-07T03:58:13.937Z,92.33
2018-01-07T03:59:23.910Z,92.62
2018-01-07T04:03:26.213Z,92.24
2018-01-07T04:04:36.185Z,92.33
2018-01-07T04:05:46.160Z,92.33
2018-01-07T04:06:56.131Z,91.96
2018-01-07T04:08:06.106Z,92.24
2018-01-07T04:09:16.075Z,92.05
2018-01-07T04:10:26.048Z,92.33
2018-01-07T04:11:36.024Z,92.9
2018-01-07T04:12:45.730Z,92.52
2018-01-07T04:13:55.703Z,92.62
2018-01-07T04:15:05.461Z,93.09
2018-01-07T04:16:15.182Z,93.37
2018-01-07T04:17:25.167Z,93.65
2018-01-07T04:18:35.137Z,93.56
2018-01-07T04:19:45.108Z,93.37
2018-01-07T04:20:55.084Z,93.37
2018-01-07T04:22:04.791Z,93.56
2018-01-07T04:23:14.769Z,93.37
2018-01-07T04:24:24.741Z,94.41
2018-01-07T04:25:34.725Z,94.31
2018-01-07T04:26:44.696Z,93.75
2018-01-07T04:27:54.402Z,94.41
2018-01-07T04:29:04.384Z,93.56
2018-01-07T04:30:14.135Z,93.56
2018-01-07T04:31:23.853Z,93.56
2018-01-07T04:32:33.301Z,93.75
2018-01-07T04:33:43.016Z,93.56
2018-01-07T04:34:52.986Z,93.65
2018-01-07T04:36:02.693Z,94.41
2018-01-07T04:37:12.411Z,94.41
2018-01-07T04:38:22.116Z,94.03
2018-01-07T04:39:31.295Z,94.6
2018-01-07T04:40:41.265Z,94.79
2018-01-07T04:41:51.241Z,95.35
2018-01-07T04:43:01.221Z,94.69
2018-01-07T04:44:10.980Z,94.98
2018-01-07T04:45:20.971Z,95.07
2018-01-07T04:46:30.948Z,95.16
2018-01-07T04:47:40.922Z,95.64
2018-01-07T04:48:50.899Z,95.35
2018-01-07T04:50:00.880Z,95.64
2018-01-07T04:51:10.860Z,96.39
2018-01-07T04:52:20.838Z,96.2
2018-01-07T04:53:30.814Z,96.11
2018-01-07T04:54:40.785Z,96.11
2018-01-07T04:55:50.499Z,96.11
2018-01-07T04:57:00.476Z,96.2
2018-01-07T04:58:10.497Z,96.01
2018-01-07T04:59:20.469Z,95.92
2018-01-07T05:00:30.443Z,95.35
2018-01-07T05:01:40.416Z,96.2
2018-01-07T05:02:50.394Z,95.82
2018-01-07T05:04:00.104Z,96.3
2018-01-07T05:05:10.076Z,96.58
2018-01-07T05:06:20.050Z,96.48
2018-01-07T05:07:30.026Z,96.3
2018-01-07T05:08:39.738Z,96.48
2018-01-07T05:09:49.711Z,96.11
2018-01-07T05:10:59.688Z,96.39
2018-01-07T05:12:09.662Z,96.11
2018-01-07T05:13:19.633Z,96.01
2018-01-07T05:14:29.368Z,96.86
2018-01-07T05:15:39.342Z,96.3
2018-01-07T05:16:49.314Z,95.73
2018-01-07T05:17:59.021Z,96.39
2018-01-07T05:19:09.043Z,96.11
2018-01-07T05:20:19.016Z,96.11
2018-01-07T05:21:28.995Z,96.11
2018-01-07T05:22:38.972Z,96.48
2018-01-07T05:23:48.944Z,96.39
2018-01-07T05:24:58.918Z,95.73
2018-01-07T05:26:08.889Z,96.2
2018-01-07T05:27:18.594Z,96.25
2018-01-07T05:28:28.570Z,96.06
2018-01-07T05:29:38.540Z,96.15
2018-01-07T05:30:48.346Z,95.96
2018-01-07T05:31:58.062Z,95.96
2018-01-07T05:33:07.771Z,96.53
2018-01-07T05:34:17.802Z,96.53
2018-01-07T05:35:27.511Z,97.19
2018-01-07T05:36:37.217Z,96.81
2018-01-07T05:37:47.191Z,97.47
2018-01-07T05:38:57.159Z,97.66
2018-01-07T05:40:07.129Z,97.33
2018-01-07T05:41:16.839Z,97.05
2018-01-07T05:42:26.811Z,97.05
2018-01-07T05:43:36.791Z,96.77
2018-01-07T05:44:46.768Z,96.2
2018-01-07T05:45:56.743Z,96.2
2018-01-07T05:47:06.722Z,95.82
2018-01-07T05:48:16.795Z,95.26
2018-01-07T05:49:26.778Z,95.35
2018-01-07T05:50:36.792Z,95.73
2018-01-07T05:51:46.762Z,95.82
2018-01-07T05:52:56.467Z,95.07
2018-01-07T05:54:06.439Z,94.69
2018-01-07T05:55:16.412Z,94.88
2018-01-07T05:56:25.853Z,94.98
2018-01-07T05:57:35.827Z,94.6
2018-01-07T05:58:45.795Z,94.5
2018-01-07T05:59:55.768Z,94.69
2018-01-07T06:01:05.754Z,94.79
2018-01-07T06:02:15.206Z,93.94
2018-01-07T06:03:25.177Z,93.37
2018-01-07T06:04:34.933Z,93.28
2018-01-07T06:05:44.913Z,93.65
2018-01-07T06:06:54.627Z,93.47
2018-01-07T06:08:04.623Z,93.47
2018-01-07T06:09:14.611Z,93.56
2018-01-07T06:10:24.588Z,93.56
2018-01-07T06:11:34.574Z,93.47
2018-01-07T06:12:44.550Z,93.65
2018-01-07T06:13:54.256Z,93.37
2018-01-07T06:15:04.230Z,92.9
2018-01-07T06:16:14.207Z,92.52
2018-01-07T06:17:24.232Z,92.71
2018-01-07T06:18:34.262Z,92.24
2018-01-07T06:19:43.974Z,91.67
2018-01-07T06:20:53.945Z,92.33
2018-01-07T06:22:03.652Z,92.14
2018-01-07T06:23:13.416Z,92.05
2018-01-07T06:24:23.390Z,92.14
2018-01-07T06:25:32.838Z,91.96
2018-01-07T06:26:42.547Z,92.05
2018-01-07T06:27:52.268Z,92.05
2018-01-07T06:29:01.973Z,92.33
2018-01-07T06:30:12.043Z,92.14
2018-01-07T06:31:22.022Z,92.14
2018-01-07T06:32:31.997Z,92.33
2018-01-07T06:33:41.977Z,92.33
2018-01-07T06:34:51.957Z,92.9
2018-01-07T06:36:01.931Z,92.52
2018-01-07T06:37:11.641Z,92.71
2018-01-07T06:38:21.612Z,93.65
2018-01-07T06:39:31.598Z,93.47
2018-01-07T06:40:41.610Z,93.28
2018-01-07T06:41:51.588Z,93.75
2018-01-07T06:43:01.561Z,93.56
2018-01-07T06:44:10.740Z,94.03
2018-01-07T06:45:20.712Z,94.31
2018-01-07T06:46:30.689Z,94.13
2018-01-07T06:47:40.402Z,94.31
2018-01-07T06:48:50.111Z,94.13
2018-01-07T06:50:00.087Z,94.31
2018-01-07T06:51:09.530Z,94.41
2018-01-07T06:52:19.242Z,94.79
2018-01-07T06:53:29.216Z,94.6
2018-01-07T06:54:38.921Z,94.41
2018-01-07T06:55:48.631Z,94.79
2018-01-07T06:56:58.603Z,94.79
2018-01-07T06:58:08.312Z,94.69
2018-01-07T06:59:18.023Z,95.07
2018-01-07T07:00:28.043Z,94.5
2018-01-07T07:01:38.149Z,95.07
2018-01-07T07:02:48.121Z,94.41
2018-01-07T07:03:57.828Z,94.98
2018-01-07T07:05:07.831Z,94.22
2018-01-07T07:06:17.809Z,94.41
2018-01-07T07:07:27.787Z,94.5
2018-01-07T07:08:37.496Z,93.84
2018-01-07T07:09:47.477Z,93.94
2018-01-07T07:10:57.457Z,94.13
2018-01-07T07:12:06.911Z,94.31
2018-01-07T07:13:16.899Z,94.41
2018-01-07T07:14:26.359Z,93.94
2018-01-07T07:15:36.065Z,94.88
2018-01-07T07:16:46.049Z,94.5
2018-01-07T07:17:56.021Z,93.94
2018-01-07T07:19:05.729Z,94.98
2018-01-07T07:20:15.702Z,94.31
2018-01-07T07:21:25.677Z,94.31
2018-01-07T07:22:35.649Z,93.56
2018-01-07T07:23:45.618Z,93.65
2018-01-07T07:24:55.325Z,93.75
2018-01-07T07:26:05.302Z,93.37
2018-01-07T07:27:15.009Z,93.56
2018-01-07T07:28:24.979Z,93.56
2018-01-07T07:29:34.420Z,93.75
2018-01-07T07:30:44.390Z,93.09
2018-01-07T07:31:54.107Z,94.03
2018-01-07T07:33:03.814Z,94.13
2018-01-07T07:34:13.521Z,94.31
2018-01-07T07:35:23.496Z,93.84
2018-01-07T07:36:32.945Z,94.22
2018-01-07T07:37:42.918Z,94.31
2018-01-07T07:38:52.628Z,94.41
2018-01-07T07:40:02.606Z,94.03
2018-01-07T07:41:12.640Z,93.84
2018-01-07T07:42:22.614Z,93.84
2018-01-07T07:43:32.590Z,94.22
2018-01-07T07:44:42.558Z,93.75
2018-01-07T07:45:52.527Z,93.56
2018-01-07T07:47:02.500Z,93.94
2018-01-07T07:48:12.474Z,93.56
2018-01-07T07:49:22.186Z,93.47
2018-01-07T07:50:32.158Z,93.37
2018-01-07T07:51:42.157Z,93.28
2018-01-07T07:52:52.130Z,92.62
2018-01-07T07:54:01.837Z,92.62
2018-01-07T07:55:11.811Z,92.71
2018-01-07T07:56:21.785Z,92.14
2018-01-07T07:57:31.759Z,91.67
2018-01-07T07:58:41.470Z,91.96
2018-01-07T07:59:51.441Z,92.52
2018-01-07T08:01:01.151Z,91.96
2018-01-07T08:02:10.920Z,91.96
2018-01-07T08:03:20.940Z,91.49
2018-01-07T08:04:30.651Z,91.11
2018-01-07T08:05:40.376Z,91.2
2018-01-07T08:06:50.349Z,90.73
2018-01-07T08:08:00.324Z,90.26
2018-01-07T08:09:09.777Z,89.61
2018-01-07T08:10:19.755Z,90.78
2018-01-07T08:11:29.468Z,90.03
2018-01-07T08:12:38.912Z,89.65
2018-01-07T08:13:48.620Z,89.65
2018-01-07T08:14:58.593Z,89.08
2018-01-07T08:16:08.305Z,88.71
2018-01-07T08:17:18.277Z,88.52
2018-01-07T08:18:28.261Z,88.52
2018-01-07T08:19:38.236Z,88.8
2018-01-07T08:20:48.210Z,88.99
2018-01-07T08:21:58.187Z,88.89
2018-01-07T08:23:07.891Z,89.65
2018-01-07T08:24:17.865Z,89.84
2018-01-07T08:25:27.575Z,90.12
2018-01-07T08:26:37.547Z,89.74
2018-01-07T08:27:47.572Z,89.84
2018-01-07T08:28:57.019Z,89.18
2018-01-07T08:30:06.994Z,89.08
2018-01-07T08:31:17.105Z,88.52
2018-01-07T08:32:26.823Z,88.52
2018-01-07T08:33:36.795Z,88.42
2018-01-07T08:34:46.773Z,88.33
2018-01-07T08:35:56.801Z,88.42
2018-01-07T08:37:06.782Z,87.86
2018-01-07T08:38:16.757Z,87.67
2018-01-07T08:39:26.466Z,87.29
2018-01-07T08:40:36.180Z,87.86
2018-01-07T08:41:46.154Z,87.95
2018-01-07T08:42:56.133Z,87.95
2018-01-07T08:44:06.112Z,87.76
2018-01-07T08:45:15.290Z,87.48
2018-01-07T08:46:25.270Z,87.29
2018-01-07T08:47:35.247Z,87.48
2018-01-07T08:48:45.327Z,88.04
2018-01-07T08:49:55.305Z,87.48
2018-01-07T08:51:05.291Z,87.86
2018-01-07T08:52:15.268Z,87.67
2018-01-07T08:53:25.242Z,88.14
2018-01-07T08:54:35.001Z,87.76
2018-01-07T08:55:44.713Z,87.86
2018-01-07T08:56:54.697Z,88.23
2018-01-07T08:58:04.712Z,88.42
2018-01-07T08:59:14.443Z,88.61
2018-01-07T09:00:24.198Z,89.08
2018-01-07T09:01:34.175Z,89.18
2018-01-07T09:02:44.149Z,88.33
2018-01-07T09:03:54.128Z,88.33
2018-01-07T09:05:03.843Z,88.33
2018-01-07T09:06:13.822Z,88.37
2018-01-07T09:07:23.536Z,88.47
2018-01-07T09:08:33.245Z,88.37
2018-01-07T09:09:43.224Z,88.37
2018-01-07T09:10:53.205Z,88.47
2018-01-07T09:12:03.186Z,88.56
2018-01-07T09:13:12.923Z,88.18
2018-01-07T09:14:22.907Z,88.56
2018-01-07T09:15:32.622Z,88.18
2018-01-07T09:16:42.649Z,88.37
2018-01-07T09:17:52.624Z,88.56
2018-01-07T09:19:02.335Z,88.28
2018-01-07T09:20:12.310Z,88.84
2018-01-07T09:21:22.288Z,88.47
2018-01-07T09:22:32.264Z,88.84
2018-01-07T09:23:42.239Z,89.22
2018-01-07T09:24:52.217Z,88.94
2018-01-07T09:26:01.666Z,89.13
2018-01-07T09:27:11.115Z,89.88
2018-01-07T09:28:20.826Z,89.69
2018-01-07T09:29:30.902Z,89.69
2018-01-07T09:30:40.611Z,90.03
2018-01-07T09:31:50.594Z,90.03
2018-01-07T09:33:00.314Z,90.59
2018-01-07T09:34:10.290Z,90.31
2018-01-07T09:35:20.264Z,90.22
2018-01-07T09:36:29.707Z,90.22
2018-01-07T09:37:39.428Z,90.26
2018-01-07T09:38:49.461Z,90.36
2018-01-07T09:39:59.442Z,90.59
2018-01-07T09:41:08.937Z,90.64
2018-01-07T09:42:18.919Z,90.22
2018-01-07T09:43:28.629Z,90.17
2018-01-07T09:44:38.343Z,90.45
2018-01-07T09:45:48.318Z,90.26
2018-01-07T09:46:58.299Z,90.64
2018-01-07T09:48:08.322Z,90.17
2018-01-07T09:49:18.031Z,90.45
2018-01-07T09:50:27.748Z,90.73
2018-01-07T09:51:37.728Z,90.36
2018-01-07T09:52:47.494Z,90.83
2018-01-07T09:53:57.470Z,90.55
2018-01-07T09:55:07.451Z,90.64
2018-01-07T09:56:17.427Z,90.64
2018-01-07T09:57:27.409Z,91.11
2018-01-07T09:58:37.390Z,91.3
2018-01-07T09:59:47.386Z,91.86
2018-01-07T10:00:57.366Z,91.96
2018-01-07T10:02:07.080Z,91.96
2018-01-07T10:03:17.062Z,91.86
2018-01-07T10:04:26.511Z,91.77
2018-01-07T10:05:36.493Z,91.86
2018-01-07T10:06:46.473Z,92.05
2018-01-07T10:07:56.447Z,92.05
2018-01-07T10:09:06.427Z,91.86
2018-01-07T10:10:16.138Z,92.05
2018-01-07T10:11:26.113Z,91.11
2018-01-07T10:12:35.563Z,91.3
2018-01-07T10:13:45.276Z,91.49
2018-01-07T10:14:55.251Z,91.49
2018-01-07T10:16:05.242Z,91.2
2018-01-07T10:17:15.229Z,91.11
2018-01-07T10:18:25.216Z,91.2
2018-01-07T10:19:35.190Z,91.39
2018-01-07T10:20:45.179Z,91.3
2018-01-07T10:21:54.890Z,91.3
2018-01-07T10:23:04.338Z,91.3
2018-01-07T10:24:14.055Z,91.3
2018-01-07T10:25:24.033Z,90.73
2018-01-07T10:26:34.016Z,90.83
2018-01-07T10:27:43.991Z,90.64
2018-01-07T10:28:53.970Z,90.64
2018-01-07T10:30:03.723Z,90.26
2018-01-07T10:31:13.716Z,90.92
2018-01-07T10:32:23.726Z,90.73
2018-01-07T10:33:33.439Z,90.07
2018-01-07T10:34:43.414Z,90.83
2018-01-07T10:35:53.393Z,90.83
2018-01-07T10:37:03.372Z,90.55
2018-01-07T10:38:12.829Z,90.31
2018-01-07T10:39:22.820Z,90.26
2018-01-07T10:40:32.804Z,90.4
2018-01-07T10:41:42.781Z,90.59
2018-01-07T10:42:52.817Z,90.87
2018-01-07T10:44:02.800Z,90.12
2018-01-07T10:45:12.250Z,90.31
2018-01-07T10:46:21.959Z,90.31
2018-01-07T10:47:31.750Z,90.68
2018-01-07T10:48:41.463Z,90.12
2018-01-07T10:49:51.239Z,90.02
2018-01-07T10:51:01.216Z,90.21
2018-01-07T10:52:11.196Z,90.31
2018-01-07T10:53:21.175Z,89.74
2018-01-07T10:54:31.154Z,90.02
2018-01-07T10:55:40.887Z,89.93
2018-01-07T10:56:50.921Z,90.12
2018-01-07T10:58:00.905Z,89.55
2018-01-07T10:59:10.884Z,90.78
2018-01-07T11:00:20.860Z,90.68
2018-01-07T11:01:30.836Z,90.68
2018-01-07T11:02:40.287Z,90.78
2018-01-07T11:03:50.262Z,90.31
2018-01-07T11:05:00.241Z,90.59
2018-01-07T11:06:09.690Z,90.4
2018-01-07T11:07:19.667Z,90.87
2018-01-07T11:08:29.697Z,90.5
2018-01-07T11:09:39.674Z,90.68
2018-01-07T11:10:49.412Z,90.68
2018-01-07T11:11:59.395Z,89.93
2018-01-07T11:13:09.117Z,90.31
2018-01-07T11:14:19.116Z,90.02
2018-01-07T11:15:28.830Z,89.93
2018-01-07T11:16:38.547Z,90.12
2018-01-07T11:17:48.535Z,89.93
2018-01-07T11:18:58.276Z,89.74
2018-01-07T11:20:07.773Z,89.93
2018-01-07T11:21:17.759Z,90.02
2018-01-07T11:22:27.743Z,89.27
2018-01-07T11:23:37.192Z,89.36
2018-01-07T11:24:47.172Z,88.98
2018-01-07T11:25:57.147Z,89.36
2018-01-07T11:27:07.131Z,88.6
2018-01-07T11:28:17.124Z,88.7
2018-01-07T11:29:26.574Z,88.23
2018-01-07T11:30:36.286Z,88.23
2018-01-07T11:31:46.267Z,88.89
2018-01-07T11:32:55.978Z,89.08
2018-01-07T11:34:05.699Z,88.51
2018-01-07T11:35:15.686Z,88.42
2018-01-07T11:36:25.399Z,89.17
2018-01-07T11:37:35.112Z,89.27
2018-01-07T11:38:44.562Z,88.6
2018-01-07T11:39:54.544Z,89.36
2018-01-07T11:41:04.260Z,88.98
2018-01-07T11:42:13.707Z,89.27
2018-01-07T11:43:23.164Z,89.27
2018-01-07T11:44:33.152Z,89.83
2018-01-07T11:45:42.606Z,90.12
2018-01-07T11:46:52.608Z,89.55
2018-01-07T11:48:02.588Z,89.45
2018-01-07T11:49:12.308Z,89.93
2018-01-07T11:50:22.283Z,89.55
2018-01-07T11:51:31.996Z,89.55
2018-01-07T11:52:42.042Z,89.83
2018-01-07T11:53:51.756Z,90.12
2018-01-07T11:55:01.744Z,90.21
2018-01-07T11:56:11.731Z,90.31
2018-01-07T11:57:21.443Z,89.83
2018-01-07T11:58:31.428Z,90.12
2018-01-07T11:59:41.153Z,90.12
2018-01-07T12:00:50.862Z,90.02
2018-01-07T12:02:00.628Z,90.31
2018-01-07T12:03:10.615Z,90.59
2018-01-07T12:04:20.597Z,90.68
2018-01-07T12:05:30.333Z,90.78
2018-01-07T12:06:40.055Z,90.68
2018-01-07T12:07:50.040Z,90.12
2018-01-07T12:09:00.028Z,90.68
2018-01-07T12:10:09.488Z,90.59
2018-01-07T12:11:19.476Z,90.02
2018-01-07T12:12:29.554Z,90.12
2018-01-07T12:13:39.268Z,89.93
2018-01-07T12:14:48.714Z,89.93
2018-01-07T12:15:58.491Z,89.08
2018-01-07T12:17:08.208Z,89.55
2018-01-07T12:18:18.190Z,89.55
2018-01-07T12:19:27.901Z,89.08
2018-01-07T12:20:38.130Z,88.79
2018-01-07T12:21:48.231Z,89.45
2018-01-07T12:22:57.947Z,89.17
2018-01-07T12:24:07.930Z,88.98
2018-01-07T12:25:17.917Z,88.79
2018-01-07T12:26:27.898Z,88.98
2018-01-07T12:27:37.661Z,89.17
2018-01-07T12:28:47.647Z,89.45
2018-01-07T12:29:57.363Z,89.31
2018-01-07T12:31:07.125Z,89.27
2018-01-07T12:32:16.854Z,89.59
2018-01-07T12:33:26.569Z,89.55
2018-01-07T12:34:36.026Z,89.78
2018-01-07T12:35:46.012Z,89.78
2018-01-07T12:36:55.461Z,90.16
2018-01-07T12:38:05.442Z,89.88
2018-01-07T12:39:15.157Z,89.97
2018-01-07T12:40:24.869Z,89.78
2018-01-07T12:41:34.711Z,89.97
2018-01-07T12:42:44.428Z,90.54
2018-01-07T12:43:54.465Z,90.45
2018-01-07T12:45:04.454Z,90.64
2018-01-07T12:46:14.435Z,90.92
2018-01-07T12:47:24.421Z,91.2
2018-01-07T12:48:34.146Z,91.11
2018-01-07T12:49:44.128Z,91.58
2018-01-07T12:50:54.135Z,91.2
2018-01-07T12:52:03.908Z,91.49
2018-01-07T12:53:13.989Z,91.82
2018-01-07T12:54:23.962Z,92.71
2018-01-07T12:55:33.680Z,92.19
2018-01-07T12:56:43.661Z,92.57
2018-01-07T12:57:53.636Z,93.04
2018-01-07T12:59:03.619Z,92.95
2018-01-07T13:00:13.597Z,93.32
2018-01-07T13:01:23.592Z,93.32
2018-01-07T13:02:33.039Z,93.13
2018-01-07T13:03:42.763Z,93.13
2018-01-07T13:04:52.476Z,92.85
2018-01-07T13:06:02.189Z,93.32
2018-01-07T13:07:12.262Z,93.04
2018-01-07T13:08:22.247Z,93.56
2018-01-07T13:09:31.968Z,93.37
2018-01-07T13:10:41.942Z,92.61
2018-01-07T13:11:51.926Z,93.18
2018-01-07T13:13:01.636Z,92.8
2018-01-07T13:14:11.357Z,92.99
2018-01-07T13:15:21.337Z,92.8
2018-01-07T13:16:31.322Z,93.09
2018-01-07T13:17:41.307Z,92.9
2018-01-07T13:18:51.301Z,93.09
2018-01-07T13:20:01.287Z,93.56
2018-01-07T13:21:10.738Z,93.75
2018-01-07T13:22:20.450Z,93.47
2018-01-07T13:23:30.426Z,93.56
2018-01-07T13:24:39.877Z,93.75
2018-01-07T13:25:49.916Z,92.9
2018-01-07T13:26:59.904Z,93.94
2018-01-07T13:28:09.667Z,93.84
2018-01-07T13:29:19.644Z,93.56
2018-01-07T13:30:29.633Z,93.75
2018-01-07T13:31:39.618Z,93.37
2018-01-07T13:32:49.334Z,94.03
2018-01-07T13:33:59.051Z,94.41
2018-01-07T13:35:08.773Z,94.03
2018-01-07T13:36:18.818Z,94.79
2018-01-07T13:37:28.584Z,94.6
2018-01-07T13:38:38.566Z,94.32
2018-01-07T13:39:48.546Z,95.07
2018-01-07T13:40:58.526Z,94.7
2018-01-07T13:42:08.510Z,94.79
2018-01-07T13:43:18.221Z,94.98
2018-01-07T13:44:27.934Z,94.79
2018-01-07T13:45:37.647Z,94.51
2018-01-07T13:46:47.636Z,93.84
2018-01-07T13:47:57.621Z,93.94
2018-01-07T13:49:07.613Z,92.99
2018-01-07T13:50:17.596Z,93.09
2018-01-07T13:51:27.312Z,93.09
2018-01-07T13:52:37.026Z,92.71
2018-01-07T13:53:47.009Z,92.8
2018-01-07T13:54:56.988Z,92.8
2018-01-07T13:56:06.979Z,93.23
2018-01-07T13:57:16.960Z,93.18
2018-01-07T13:58:26.945Z,92.85
2018-01-07T13:59:36.392Z,92.38
2018-01-07T14:00:46.111Z,92.52
2018-01-07T14:01:55.824Z,92.8
2018-01-07T14:03:05.812Z,93.04
2018-01-07T14:04:15.791Z,93.75
2018-01-07T14:05:25.785Z,93.47
2018-01-07T14:06:35.499Z,93.94
2018-01-07T14:07:45.211Z,94.22
2018-01-07T14:08:55.188Z,94.41
2018-01-07T14:10:05.172Z,94.03
2018-01-07T14:11:14.887Z,93.8
2018-01-07T14:12:24.651Z,93.75
2018-01-07T14:13:34.629Z,94.22
2018-01-07T14:14:44.677Z,94.13
2018-01-07T14:15:54.125Z,94.08
2018-01-07T14:17:03.843Z,94.13
2018-01-07T14:18:13.826Z,94.56
2018-01-07T14:19:23.274Z,94.84
2018-01-07T14:20:32.734Z,94.74
2018-01-07T14:21:42.755Z,94.74
2018-01-07T14:22:52.733Z,94.74
2018-01-07T14:24:02.712Z,94.74
2018-01-07T14:25:12.429Z,95.03
2018-01-07T14:26:22.410Z,95.03
2018-01-07T14:27:32.185Z,95.45
2018-01-07T14:28:42.192Z,95.31
2018-01-07T14:29:52.183Z,95.64
2018-01-07T14:31:01.907Z,95.92
2018-01-07T14:32:11.889Z,95.64
2018-01-07T14:33:21.878Z,96.11
2018-01-07T14:34:31.871Z,96.01
2018-01-07T14:35:41.318Z,96.11
2018-01-07T14:36:51.296Z,95.64
2018-01-07T14:38:01.019Z,95.92
2018-01-07T14:39:11.005Z,96.11
2018-01-07T14:40:20.989Z,96.86
2018-01-07T14:41:30.972Z,96.39
2018-01-07T14:42:40.422Z,97.15
2018-01-07T14:43:50.405Z,96.96
2018-01-07T14:45:00.388Z,97.72
2018-01-07T14:46:09.837Z,97.62
2018-01-07T14:47:19.820Z,97.53
2018-01-07T14:48:29.269Z,97.72
2018-01-07T14:49:38.984Z,98.1
2018-01-07T14:50:48.705Z,98.38
2018-01-07T14:51:58.682Z,98.38
2018-01-07T14:53:08.663Z,98.19
2018-01-07T14:54:18.656Z,98.28
2018-01-07T14:55:28.367Z,98.1
2018-01-07T14:56:38.349Z,98.1
2018-01-07T14:57:48.062Z,98.19
2018-01-07T14:58:58.043Z,99.04
2018-01-07T15:00:08.023Z,98.94
2018-01-07T15:01:18.106Z,98.85
2018-01-07T15:02:28.090Z,98.9
2018-01-07T15:03:38.065Z,98.66
2018-01-07T15:04:48.044Z,98.66
2018-01-07T15:05:57.759Z,98.75